Time;durP1;ratioP1;P1;durP2;ratioP2;P2;SDS_P1;SDS_P2;PMS_P1;PMS_P2;Temp;Humidity;BMP_temperature;BMP_pressure;BME280_temperature;BME280_humidity;BME280_pressure;Samples;Min_cycle;Max_cycle;Signal;HPM_P1;HPM_P2
2022/04/11 00:02:08;;;;;;;5.13;2.28;;;5.30;73.40;;;;;;5049677;28;20104;-66
2022/04/11 00:04:34;;;;;;;6.63;2.63;;;5.30;73.50;;;;;;5049169;28;20049;-66
2022/04/11 00:07:00;;;;;;;5.45;2.25;;;5.40;73.50;;;;;;5049553;28;20064;-66
2022/04/11 00:09:25;;;;;;;5.65;2.47;;;5.30;73.50;;;;;;5048237;28;20131;-66
2022/04/11 00:11:52;;;;;;;8.05;2.28;;;5.30;73.50;;;;;;5048120;28;20144;-65
2022/04/11 00:14:18;;;;;;;6.00;2.13;;;5.30;73.50;;;;;;5055863;28;20136;-66
2022/04/11 00:16:43;;;;;;;8.70;2.38;;;5.30;73.50;;;;;;5048607;28;20076;-65
2022/04/11 00:19:09;;;;;;;6.47;2.13;;;5.30;73.50;;;;;;5043310;28;20041;-66
2022/04/11 00:21:35;;;;;;;5.43;2.20;;;5.30;73.50;;;;;;5048759;28;20133;-66
2022/04/11 00:24:00;;;;;;;5.72;2.15;;;5.30;73.40;;;;;;5047786;28;20051;-66
2022/04/11 00:26:26;;;;;;;9.38;2.00;;;5.30;73.30;;;;;;5049913;28;20037;-66
2022/04/11 00:28:53;;;;;;;5.38;2.25;;;5.30;73.30;;;;;;5049740;28;20037;-66
2022/04/11 00:31:19;;;;;;;10.32;3.22;;;5.20;73.20;;;;;;5049129;28;20045;-66
2022/04/11 00:33:45;;;;;;;7.53;2.10;;;5.20;73.20;;;;;;5050088;28;20047;-66
2022/04/11 00:36:11;;;;;;;5.80;2.47;;;5.20;73.10;;;;;;5048981;28;20124;-64
2022/04/11 00:38:37;;;;;;;7.57;2.08;;;5.20;73.10;;;;;;5046374;28;20029;-65
2022/04/11 00:41:02;;;;;;;7.35;1.80;;;5.10;73.10;;;;;;5048726;28;20039;-65
2022/04/11 00:43:36;;;;;;;5.55;1.90;;;5.10;73.10;;;;;;5045500;28;20035;-65
2022/04/11 00:46:03;;;;;;;8.52;2.13;;;5.10;73.10;;;;;;5048817;28;20124;-65
2022/04/11 00:48:29;;;;;;;5.75;2.33;;;5.10;73.10;;;;;;5048932;28;20044;-65
2022/04/11 00:51:01;;;;;;;5.65;2.47;;;5.00;73.10;;;;;;5049273;28;20037;-65
2022/04/11 00:53:30;;;;;;;4.25;2.38;;;5.00;73.20;;;;;;5048802;28;20060;-65
2022/04/11 00:55:58;;;;;;;5.88;2.10;;;5.00;73.30;;;;;;5049458;28;20638;-65
2022/04/11 00:58:24;;;;;;;10.15;2.70;;;5.00;73.30;;;;;;5047748;28;20791;-64
2022/04/11 01:00:50;;;;;;;6.90;2.35;;;4.90;73.30;;;;;;5048595;28;20406;-65
2022/04/11 01:03:15;;;;;;;7.90;3.35;;;4.90;73.30;;;;;;5049122;28;20049;-64
2022/04/11 01:05:42;;;;;;;6.97;3.33;;;4.90;73.20;;;;;;5042940;28;20513;-64
2022/04/11 01:08:10;;;;;;;7.07;2.97;;;4.80;73.20;;;;;;5053823;28;20052;-65
2022/04/11 01:10:36;;;;;;;6.30;3.00;;;4.80;73.20;;;;;;5050029;28;20052;-65
2022/04/11 01:13:03;;;;;;;7.25;3.78;;;4.80;73.20;;;;;;5050507;28;20048;-65
2022/04/11 01:15:29;;;;;;;7.40;3.10;;;4.80;73.20;;;;;;5049796;28;20512;-65
2022/04/11 01:17:54;;;;;;;6.50;3.10;;;4.80;73.20;;;;;;5050868;28;20043;-65
2022/04/11 01:20:21;;;;;;;6.75;2.88;;;4.80;73.20;;;;;;5050486;28;20036;-65
2022/04/11 01:22:47;;;;;;;5.90;2.58;;;4.80;73.20;;;;;;5049731;28;20063;-65
2022/04/11 01:25:17;;;;;;;5.40;2.53;;;4.80;73.30;;;;;;5049144;28;20040;-65
2022/04/11 01:27:43;;;;;;;6.78;3.42;;;4.80;73.40;;;;;;5049980;28;20131;-65
2022/04/11 01:30:12;;;;;;;12.30;3.25;;;4.80;73.40;;;;;;5048157;28;20045;-66
2022/04/11 01:32:38;;;;;;;6.03;2.95;;;4.80;73.40;;;;;;5049331;28;20041;-65
2022/04/11 01:35:16;;;;;;;7.18;2.70;;;4.80;73.40;;;;;;5050205;28;20037;-64
2022/04/11 01:37:42;;;;;;;4.95;2.35;;;4.80;73.40;;;;;;5050464;28;20052;-64
2022/04/11 01:40:08;;;;;;;6.97;2.70;;;4.80;73.50;;;;;;5048744;28;20111;-65
2022/04/11 01:42:33;;;;;;;5.18;2.88;;;4.80;73.40;;;;;;5048210;28;20037;-65
2022/04/11 01:44:59;;;;;;;7.47;2.13;;;4.80;73.50;;;;;;5049140;28;20188;-66
2022/04/11 01:47:25;;;;;;;6.20;2.90;;;4.80;73.50;;;;;;5050410;28;20430;-66
2022/04/11 01:49:50;;;;;;;11.23;2.40;;;4.90;73.60;;;;;;5049744;28;20037;-65
2022/04/11 01:52:16;;;;;;;5.80;3.08;;;4.90;73.50;;;;;;5050147;28;20064;-66
2022/04/11 01:54:41;;;;;;;6.40;2.92;;;4.90;73.50;;;;;;5049060;28;20071;-66
2022/04/11 01:57:07;;;;;;;8.30;3.08;;;4.90;73.50;;;;;;5048744;28;20041;-66
2022/04/11 01:59:33;;;;;;;5.32;2.47;;;4.90;73.60;;;;;;5050361;28;20036;-66
2022/04/11 02:01:58;;;;;;;5.05;2.60;;;4.90;73.60;;;;;;5031547;28;20493;-66
2022/04/11 02:04:24;;;;;;;6.38;2.13;;;5.00;73.70;;;;;;5050241;28;20754;-65
2022/04/11 02:06:50;;;;;;;5.22;3.20;;;5.00;73.80;;;;;;5049807;28;20041;-64
2022/04/11 02:09:15;;;;;;;5.20;2.92;;;5.10;73.90;;;;;;5047741;28;20099;-63
2022/04/11 02:11:41;;;;;;;5.25;2.20;;;5.10;73.90;;;;;;5049015;28;20041;-65
2022/04/11 02:14:07;;;;;;;8.15;2.55;;;5.10;74.00;;;;;;5048335;28;20037;-64
2022/04/11 02:16:33;;;;;;;7.47;4.15;;;5.10;74.10;;;;;;5048171;28;20048;-64
2022/04/11 02:18:58;;;;;;;5.40;2.63;;;5.10;74.20;;;;;;5048754;28;20037;-65
2022/04/11 02:21:24;;;;;;;7.32;3.05;;;5.10;74.20;;;;;;5048597;28;20049;-64
2022/04/11 02:23:50;;;;;;;5.95;2.85;;;5.10;74.40;;;;;;5048379;28;20421;-65
2022/04/11 02:26:15;;;;;;;4.78;2.65;;;5.10;74.50;;;;;;5048220;28;20047;-65
2022/04/11 02:28:41;;;;;;;7.70;2.85;;;5.20;74.60;;;;;;5048223;28;20041;-65
2022/04/11 02:31:06;;;;;;;5.13;2.53;;;5.20;74.60;;;;;;5048627;28;20136;-65
2022/04/11 02:33:32;;;;;;;12.38;5.05;;;5.20;74.60;;;;;;5044396;28;20044;-65
2022/04/11 02:35:58;;;;;;;6.25;2.65;;;5.20;74.70;;;;;;5047524;28;20103;-65
2022/04/11 02:38:23;;;;;;;4.78;2.70;;;5.10;74.80;;;;;;5059466;28;20127;-65
2022/04/11 02:40:49;;;;;;;4.85;2.92;;;5.20;74.80;;;;;;5070854;28;20036;-65
2022/04/11 02:43:14;;;;;;;4.93;2.80;;;5.10;74.90;;;;;;5061627;28;20140;-65
2022/04/11 02:45:40;;;;;;;3.70;2.45;;;5.10;75.00;;;;;;5052222;28;20072;-65
2022/04/11 02:48:06;;;;;;;5.25;2.28;;;5.10;75.10;;;;;;5051859;28;20041;-65
2022/04/11 02:50:32;;;;;;;7.00;2.80;;;5.10;75.20;;;;;;5055639;28;20041;-65
2022/04/11 02:52:57;;;;;;;6.35;2.75;;;5.00;75.20;;;;;;5051320;28;20079;-65
2022/04/11 02:55:23;;;;;;;7.78;3.15;;;5.00;75.30;;;;;;5051567;28;20047;-65
2022/04/11 02:57:49;;;;;;;6.18;3.33;;;5.00;75.40;;;;;;5051374;28;20037;-65
2022/04/11 03:00:15;;;;;;;6.03;2.42;;;5.00;75.50;;;;;;5052134;28;20049;-66
2022/04/11 03:02:41;;;;;;;6.70;3.00;;;5.00;75.60;;;;;;5051188;28;20041;-65
2022/04/11 03:05:07;;;;;;;5.45;2.67;;;4.90;75.70;;;;;;5052486;28;20064;-65
2022/04/11 03:07:33;;;;;;;7.28;2.97;;;4.90;75.70;;;;;;5052560;28;20044;-66
2022/04/11 03:09:59;;;;;;;4.55;2.58;;;4.90;75.90;;;;;;5051467;28;20041;-66
2022/04/11 03:12:26;;;;;;;5.70;2.92;;;4.90;75.90;;;;;;5051958;28;20048;-65
2022/04/11 03:14:51;;;;;;;6.97;2.83;;;4.80;75.90;;;;;;5050730;28;20036;-65
2022/04/11 03:17:17;;;;;;;5.32;2.63;;;4.90;76.10;;;;;;5050864;28;20470;-65
2022/04/11 03:19:46;;;;;;;5.53;3.08;;;4.90;76.10;;;;;;5051645;28;20040;-66
2022/04/11 03:22:12;;;;;;;5.60;2.50;;;4.90;76.10;;;;;;5052392;28;20472;-65
2022/04/11 03:24:38;;;;;;;3.65;2.42;;;4.90;76.10;;;;;;5051752;28;20037;-66
2022/04/11 03:27:04;;;;;;;6.18;2.40;;;4.80;76.10;;;;;;5052374;28;20049;-65
2022/04/11 03:29:30;;;;;;;6.15;2.45;;;4.90;76.10;;;;;;5051059;28;20515;-65
2022/04/11 03:31:56;;;;;;;5.25;2.42;;;4.90;76.00;;;;;;5049979;28;20045;-65
2022/04/11 03:34:22;;;;;;;4.43;2.53;;;4.90;75.90;;;;;;5050268;28;20109;-65
2022/04/11 03:36:47;;;;;;;6.32;2.20;;;4.90;75.90;;;;;;5050472;28;20572;-65
2022/04/11 03:39:14;;;;;;;7.97;2.53;;;4.90;75.90;;;;;;5050513;28;20116;-65
2022/04/11 03:41:43;;;;;;;8.85;3.10;;;4.90;75.90;;;;;;5050306;28;20341;-65
2022/04/11 03:44:10;;;;;;;8.10;2.58;;;4.90;75.90;;;;;;5050338;28;20048;-65
2022/04/11 03:46:38;;;;;;;4.40;2.42;;;4.90;75.70;;;;;;5050752;28;20041;-65
2022/04/11 03:49:05;;;;;;;10.77;2.70;;;4.90;75.70;;;;;;5050473;28;20051;-65
2022/04/11 03:51:31;;;;;;;4.28;2.55;;;4.90;75.70;;;;;;5049990;28;20084;-65
2022/04/11 03:53:57;;;;;;;10.30;3.00;;;4.90;75.60;;;;;;5047117;28;20040;-65
2022/04/11 03:56:22;;;;;;;4.97;2.45;;;4.90;75.50;;;;;;5049418;28;20045;-65
2022/04/11 03:58:48;;;;;;;5.75;2.78;;;4.90;75.50;;;;;;5049535;28;20059;-65
2022/04/11 04:01:51;;;;;;;6.90;3.78;;;5.00;75.60;;;;;;5049761;28;20049;-65
2022/04/11 04:04:16;;;;;;;8.05;2.88;;;5.00;75.50;;;;;;5049720;28;20041;-65
2022/04/11 04:06:42;;;;;;;5.18;2.45;;;5.00;75.50;;;;;;5050256;28;20051;-65
2022/04/11 04:09:08;;;;;;;6.45;2.50;;;5.00;75.40;;;;;;5050040;28;20584;-65
2022/04/11 04:11:33;;;;;;;7.13;2.05;;;5.00;75.40;;;;;;5049293;28;20120;-65
2022/04/11 04:13:59;;;;;;;8.73;2.58;;;5.00;75.40;;;;;;5049777;28;20071;-65
2022/04/11 04:16:25;;;;;;;7.88;2.35;;;5.00;75.30;;;;;;5049883;28;20053;-65
2022/04/11 04:18:50;;;;;;;4.35;2.00;;;5.00;75.30;;;;;;5049823;28;20107;-65
2022/04/11 04:21:18;;;;;;;8.05;2.72;;;5.10;75.20;;;;;;5050159;28;20124;-65
2022/04/11 04:23:44;;;;;;;5.75;2.22;;;5.00;75.10;;;;;;5049656;28;20075;-65
2022/04/11 04:26:10;;;;;;;5.85;2.42;;;5.10;75.10;;;;;;5049882;28;20033;-65
2022/04/11 04:28:36;;;;;;;4.13;2.20;;;5.10;75.10;;;;;;5049380;28;20036;-65
2022/04/11 04:31:01;;;;;;;8.32;2.88;;;5.10;75.10;;;;;;5050281;28;20037;-65
2022/04/11 04:33:30;;;;;;;3.92;2.10;;;5.10;75.00;;;;;;5049661;28;20048;-65
2022/04/11 04:35:56;;;;;;;4.40;1.90;;;5.10;75.10;;;;;;5048770;28;20045;-65
2022/04/11 04:38:22;;;;;;;5.53;2.20;;;5.10;75.00;;;;;;5049722;28;20490;-66
2022/04/11 04:40:47;;;;;;;4.80;2.00;;;5.10;74.90;;;;;;5049342;28;20080;-66
2022/04/11 04:43:13;;;;;;;4.47;2.22;;;5.10;74.80;;;;;;5048350;28;20402;-66
2022/04/11 04:45:38;;;;;;;4.53;1.80;;;5.10;74.70;;;;;;5048670;28;20068;-66
2022/04/11 04:48:05;;;;;;;5.35;2.28;;;5.10;74.70;;;;;;5048933;28;20041;-66
2022/04/11 04:50:31;;;;;;;5.90;1.95;;;5.10;74.70;;;;;;5046652;28;20045;-65
2022/04/11 04:52:57;;;;;;;10.52;2.47;;;5.10;74.80;;;;;;5049609;28;20037;-66
2022/04/11 04:55:23;;;;;;;6.35;2.38;;;5.10;74.80;;;;;;5049035;28;20557;-66
2022/04/11 04:57:49;;;;;;;3.53;1.52;;;5.10;74.80;;;;;;5048724;28;20040;-66
2022/04/11 05:00:15;;;;;;;5.47;2.03;;;5.10;74.80;;;;;;5048724;28;20041;-66
2022/04/11 05:02:42;;;;;;;7.40;1.85;;;5.10;74.90;;;;;;5049270;28;20064;-66
2022/04/11 05:05:10;;;;;;;5.78;2.95;;;5.10;74.90;;;;;;5048012;28;20497;-66
2022/04/11 05:07:36;;;;;;;3.15;2.17;;;5.10;75.00;;;;;;5048898;28;20052;-66
2022/04/11 05:10:04;;;;;;;3.20;1.77;;;5.20;74.90;;;;;;5046829;28;20049;-66
2022/04/11 05:12:29;;;;;;;6.82;1.80;;;5.20;75.00;;;;;;5048364;28;20048;-66
2022/04/11 05:14:55;;;;;;;7.35;3.70;;;5.20;74.90;;;;;;5047354;28;20051;-66
2022/04/11 05:17:22;;;;;;;5.70;2.25;;;5.20;75.00;;;;;;5048059;28;20156;-67
2022/04/11 05:19:48;;;;;;;8.32;2.17;;;5.20;74.90;;;;;;5048683;28;20508;-66
2022/04/11 05:22:13;;;;;;;8.10;1.92;;;5.20;74.90;;;;;;5048115;28;20048;-66
2022/04/11 05:24:39;;;;;;;6.65;1.60;;;5.20;74.90;;;;;;5047226;28;20032;-66
2022/04/11 05:27:05;;;;;;;5.65;2.03;;;5.20;74.90;;;;;;5048450;28;20599;-66
2022/04/11 05:29:30;;;;;;;7.43;1.77;;;5.20;74.90;;;;;;5047905;28;20045;-65
2022/04/11 05:31:56;;;;;;;7.97;2.30;;;5.20;75.00;;;;;;5048105;28;20043;-65
2022/04/11 05:34:21;;;;;;;6.38;2.55;;;5.20;75.00;;;;;;5047797;28;20073;-65
2022/04/11 05:36:47;;;;;;;4.90;2.00;;;5.20;75.00;;;;;;5049052;28;20413;-65
2022/04/11 05:39:13;;;;;;;3.83;1.77;;;5.20;75.00;;;;;;5048983;28;20044;-65
2022/04/11 05:41:38;;;;;;;5.47;2.13;;;5.30;75.00;;;;;;5049343;28;20099;-65
2022/04/11 05:44:04;;;;;;;7.68;2.13;;;5.30;75.00;;;;;;5047588;28;20465;-65
2022/04/11 05:46:30;;;;;;;6.47;2.03;;;5.30;74.90;;;;;;5049843;28;20052;-65
2022/04/11 05:48:55;;;;;;;6.55;2.25;;;5.30;74.90;;;;;;5048076;28;20135;-66
2022/04/11 05:51:21;;;;;;;6.00;2.30;;;5.30;74.90;;;;;;5049456;28;20052;-65
2022/04/11 05:53:46;;;;;;;5.93;2.90;;;5.40;74.90;;;;;;5048218;28;20044;-66
2022/04/11 05:56:12;;;;;;;4.53;2.10;;;5.30;74.90;;;;;;5049106;28;20049;-65
2022/04/11 05:58:37;;;;;;;3.60;2.42;;;5.30;74.90;;;;;;5048563;28;20036;-66
2022/04/11 06:01:03;;;;;;;6.38;2.88;;;5.30;75.00;;;;;;5049419;28;20044;-65
2022/04/11 06:03:28;;;;;;;6.38;1.95;;;5.40;75.00;;;;;;5049165;28;20394;-66
2022/04/11 06:05:54;;;;;;;8.23;2.25;;;5.40;75.00;;;;;;5048597;28;20051;-65
2022/04/11 06:08:19;;;;;;;2.83;1.75;;;5.40;75.00;;;;;;5048821;28;20045;-66
2022/04/11 06:10:46;;;;;;;4.78;1.67;;;5.40;75.00;;;;;;5048245;28;20175;-68
2022/04/11 06:13:12;;;;;;;5.35;2.20;;;5.40;75.00;;;;;;5049319;28;20049;-67
2022/04/11 06:15:38;;;;;;;9.40;2.00;;;5.90;76.30;;;;;;5049095;28;20106;-66
2022/04/11 06:18:03;;;;;;;4.47;1.60;;;6.00;75.40;;;;;;5048839;28;20138;-67
2022/04/11 06:20:29;;;;;;;4.65;2.17;;;6.10;74.90;;;;;;5048026;28;20642;-66
2022/04/11 06:22:54;;;;;;;6.35;3.08;;;6.10;74.80;;;;;;5047703;28;20117;-66
2022/04/11 06:25:20;;;;;;;7.82;2.60;;;6.10;74.50;;;;;;5048178;28;20053;-66
2022/04/11 06:27:45;;;;;;;4.32;2.08;;;6.10;74.40;;;;;;5048837;28;20520;-66
2022/04/11 06:30:12;;;;;;;6.93;2.05;;;6.10;74.40;;;;;;5048758;28;20041;-67
2022/04/11 06:32:37;;;;;;;4.25;2.33;;;6.10;74.30;;;;;;5048395;28;20083;-66
2022/04/11 06:35:03;;;;;;;4.47;1.88;;;6.00;74.30;;;;;;5048954;28;20040;-67
2022/04/11 06:37:29;;;;;;;6.78;2.00;;;6.10;74.40;;;;;;5049282;28;20041;-67
2022/04/11 06:39:55;;;;;;;5.07;1.77;;;6.10;74.50;;;;;;5048966;28;20130;-66
2022/04/11 06:42:21;;;;;;;6.25;2.22;;;6.10;74.40;;;;;;5049496;28;20482;-66
2022/04/11 06:44:47;;;;;;;7.75;2.25;;;6.10;74.40;;;;;;5049492;28;20489;-67
2022/04/11 06:47:12;;;;;;;4.68;2.25;;;6.10;74.50;;;;;;5049566;28;20041;-66
2022/04/11 06:49:39;;;;;;;3.03;0.90;;;6.10;74.50;;;;;;5047981;28;20033;-69
2022/04/11 06:52:06;;;;;;;10.55;2.30;;;6.50;76.40;;;;;;5048779;28;20092;-67
2022/04/11 06:54:32;;;;;;;5.68;1.80;;;6.90;75.50;;;;;;5047631;28;20048;-67
2022/04/11 06:56:58;;;;;;;6.70;2.08;;;6.90;74.20;;;;;;5048055;28;20079;-66
2022/04/11 06:59:24;;;;;;;7.63;2.10;;;6.90;73.60;;;;;;5048260;28;20110;-67
2022/04/11 07:01:53;;;;;;;4.72;1.77;;;6.80;73.40;;;;;;5047367;28;20509;-67
2022/04/11 07:04:19;;;;;;;3.45;1.98;;;6.80;73.40;;;;;;5048075;28;20045;-67
2022/04/11 07:06:45;;;;;;;11.30;2.30;;;6.80;73.50;;;;;;5047154;28;20090;-66
2022/04/11 07:09:10;;;;;;;5.05;1.67;;;6.80;73.90;;;;;;5047762;28;20053;-65
2022/04/11 07:11:36;;;;;;;6.40;2.33;;;7.00;73.90;;;;;;5047879;28;20461;-64
2022/04/11 07:14:02;;;;;;;6.25;2.22;;;7.00;73.60;;;;;;5047932;28;20116;-65
2022/04/11 07:16:28;;;;;;;4.53;1.98;;;7.10;73.90;;;;;;5047420;28;20413;-64
2022/04/11 07:18:54;;;;;;;3.42;1.83;;;7.10;73.60;;;;;;5047976;28;20037;-65
2022/04/11 07:21:19;;;;;;;7.15;2.25;;;7.10;73.60;;;;;;5048444;28;20044;-64
2022/04/11 07:23:45;;;;;;;11.35;2.67;;;7.10;73.60;;;;;;5047932;28;20059;-65
2022/04/11 07:26:11;;;;;;;4.75;2.10;;;7.10;73.70;;;;;;5048075;28;20047;-64
2022/04/11 07:28:37;;;;;;;8.02;2.25;;;7.10;73.60;;;;;;5050273;28;20037;-65
2022/04/11 07:31:02;;;;;;;7.75;2.10;;;7.10;73.70;;;;;;5051890;28;20041;-65
2022/04/11 07:33:28;;;;;;;6.50;2.55;;;7.10;73.80;;;;;;5051695;28;20036;-65
2022/04/11 07:35:54;;;;;;;6.93;3.22;;;7.20;73.90;;;;;;5051129;28;20060;-65
2022/04/11 07:38:19;;;;;;;4.80;2.05;;;7.20;73.90;;;;;;5051276;28;20045;-65
2022/04/11 07:40:46;;;;;;;7.45;2.20;;;7.20;74.00;;;;;;5051222;28;20056;-65
2022/04/11 07:43:11;;;;;;;4.43;1.88;;;7.30;74.10;;;;;;5050432;28;20048;-65
2022/04/11 07:45:37;;;;;;;9.10;2.58;;;7.40;74.30;;;;;;5051344;28;20087;-65
2022/04/11 07:48:04;;;;;;;5.85;2.47;;;7.40;74.40;;;;;;5051513;28;20043;-64
2022/04/11 07:50:29;;;;;;;4.53;2.17;;;7.50;74.40;;;;;;5050914;28;20056;-65
2022/04/11 07:52:55;;;;;;;8.20;2.30;;;7.60;74.60;;;;;;5050948;28;20040;-65
2022/04/11 07:55:21;;;;;;;9.13;2.53;;;7.60;74.60;;;;;;5051458;28;20040;-65
2022/04/11 07:57:47;;;;;;;10.90;3.53;;;7.70;74.60;;;;;;5051476;28;20092;-65
2022/04/11 08:00:13;;;;;;;4.57;2.28;;;7.80;74.60;;;;;;5051096;28;20218;-65
2022/04/11 08:02:39;;;;;;;8.77;2.22;;;7.90;74.50;;;;;;5051056;28;20068;-65
2022/04/11 08:05:05;;;;;;;10.85;3.03;;;7.90;74.70;;;;;;5050996;28;20084;-65
2022/04/11 08:07:34;;;;;;;5.20;2.20;;;8.00;74.50;;;;;;5052031;28;20041;-65
2022/04/11 08:10:05;;;;;;;4.85;2.55;;;8.10;74.50;;;;;;5058927;28;20064;-66
2022/04/11 08:12:31;;;;;;;8.40;4.00;;;8.20;74.40;;;;;;5050220;28;20056;-65
2022/04/11 08:14:57;;;;;;;8.30;2.80;;;8.20;74.40;;;;;;5050774;28;20037;-65
2022/04/11 08:17:23;;;;;;;5.70;2.20;;;8.30;74.40;;;;;;5050298;28;20044;-65
2022/04/11 08:19:48;;;;;;;5.93;2.42;;;8.40;74.30;;;;;;5050256;28;20411;-65
2022/04/11 08:22:14;;;;;;;7.75;2.55;;;8.50;74.30;;;;;;5050624;28;20075;-65
2022/04/11 08:24:40;;;;;;;5.05;1.60;;;8.60;74.30;;;;;;5050727;28;20049;-65
2022/04/11 08:27:05;;;;;;;8.73;2.47;;;8.80;74.30;;;;;;5049367;28;20045;-65
2022/04/11 08:29:31;;;;;;;8.50;2.22;;;9.00;73.60;;;;;;5049932;28;20076;-66
2022/04/11 08:31:57;;;;;;;8.07;2.47;;;9.00;73.10;;;;;;5049262;28;20103;-66
2022/04/11 08:34:22;;;;;;;6.82;2.30;;;9.00;72.80;;;;;;5048586;28;20183;-66
2022/04/11 08:36:48;;;;;;;5.63;2.65;;;9.00;72.60;;;;;;5048536;28;20476;-67
2022/04/11 08:39:14;;;;;;;7.63;2.35;;;9.00;72.60;;;;;;5048245;28;20052;-66
2022/04/11 08:41:40;;;;;;;5.88;2.38;;;9.00;72.80;;;;;;5047948;28;20045;-67
2022/04/11 08:44:06;;;;;;;9.23;2.80;;;9.10;72.80;;;;;;5048278;28;20564;-67
2022/04/11 08:46:33;;;;;;;4.63;2.33;;;9.10;72.60;;;;;;5049990;28;20082;-67
2022/04/11 08:49:00;;;;;;;7.75;2.92;;;9.10;72.40;;;;;;5049910;28;20087;-67
2022/04/11 08:51:27;;;;;;;4.93;2.33;;;9.20;72.00;;;;;;5050081;28;20110;-67
2022/04/11 08:53:53;;;;;;;7.18;2.33;;;9.30;71.60;;;;;;5050157;28;20498;-67
2022/04/11 08:56:18;;;;;;;4.60;2.00;;;9.40;71.40;;;;;;5048649;28;20084;-66
2022/04/11 08:58:44;;;;;;;8.43;2.90;;;9.40;71.00;;;;;;5049256;28;20033;-66
2022/04/11 09:01:10;;;;;;;8.75;2.10;;;9.50;70.10;;;;;;5055519;28;20053;-66
2022/04/11 09:03:35;;;;;;;6.30;2.25;;;9.50;70.30;;;;;;5049801;28;20113;-67
2022/04/11 09:06:06;;;;;;;8.07;2.75;;;9.60;70.10;;;;;;5049334;28;20033;-66
2022/04/11 09:08:50;;;;;;;5.50;2.05;;;9.70;69.60;;;;;;5048730;28;20056;-67
2022/04/11 09:11:36;;;;;;;7.05;2.55;;;9.90;69.30;;;;;;5048885;28;20060;-67
2022/04/11 09:14:04;;;;;;;6.95;2.15;;;9.90;68.80;;;;;;5049370;28;20041;-67
2022/04/11 09:16:51;;;;;;;7.95;2.03;;;10.00;68.70;;;;;;5049586;28;20029;-67
2022/04/11 09:19:19;;;;;;;3.15;1.70;;;10.10;67.70;;;;;;5050040;28;20041;-68
2022/04/11 09:21:45;;;;;;;11.93;2.10;;;10.10;67.60;;;;;;5049900;28;20110;-68
2022/04/11 09:24:16;;;;;;;8.88;1.65;;;10.10;66.90;;;;;;5049572;28;20048;-68
2022/04/11 09:26:42;;;;;;;4.60;1.58;;;10.30;66.70;;;;;;5049359;28;20436;-69
2022/04/11 09:29:08;;;;;;;3.45;1.63;;;10.30;66.00;;;;;;5049691;28;20119;-69
2022/04/11 09:31:34;;;;;;;6.55;1.35;;;10.40;64.20;;;;;;5049537;28;20458;-68
2022/04/11 09:34:18;;;;;;;8.43;1.65;;;10.50;64.70;;;;;;5049535;28;20044;-68
2022/04/11 09:36:47;;;;;;;5.30;1.50;;;10.60;63.60;;;;;;5049502;28;20397;-67
2022/04/11 09:39:13;;;;;;;11.05;2.53;;;10.60;63.80;;;;;;5049027;28;20076;-67
2022/04/11 09:41:44;;;;;;;2.83;1.30;;;10.70;63.80;;;;;;5049418;28;20409;-67
2022/04/11 09:44:23;;;;;;;9.50;1.63;;;10.80;63.60;;;;;;5049667;28;20576;-66
2022/04/11 09:46:50;;;;;;;5.50;1.60;;;10.90;63.20;;;;;;5048955;28;20086;-66
2022/04/11 09:49:17;;;;;;;4.90;1.92;;;11.00;63.30;;;;;;5048663;28;20045;-68
2022/04/11 09:52:02;;;;;;;5.75;2.15;;;11.10;63.10;;;;;;5048700;28;20058;-66
2022/04/11 09:54:29;;;;;;;5.30;1.90;;;11.20;62.20;;;;;;5048770;28;20037;-66
2022/04/11 09:56:56;;;;;;;5.10;1.48;;;11.20;62.40;;;;;;5048607;28;20446;-66
2022/04/11 09:59:23;;;;;;;6.18;1.60;;;11.30;61.50;;;;;;5049054;28;20045;-66
2022/04/11 10:01:51;;;;;;;5.28;2.10;;;11.30;61.60;;;;;;5049147;28;20041;-67
2022/04/11 10:04:21;;;;;;;6.03;1.55;;;11.50;61.30;;;;;;5049127;28;20036;-66
2022/04/11 10:06:47;;;;;;;5.10;1.83;;;11.60;60.30;;;;;;5043150;28;20051;-66
2022/04/11 10:09:14;;;;;;;7.45;2.47;;;11.60;60.30;;;;;;5044184;28;20410;-65
2022/04/11 10:11:41;;;;;;;5.95;1.73;;;11.80;59.70;;;;;;5048197;28;20052;-67
2022/04/11 10:14:10;;;;;;;5.18;1.95;;;11.90;59.00;;;;;;5048781;28;20040;-67
2022/04/11 10:16:42;;;;;;;6.65;2.00;;;11.90;57.90;;;;;;5048556;28;20045;-66
2022/04/11 10:19:09;;;;;;;3.40;1.48;;;12.00;57.20;;;;;;5048918;28;20262;-66
2022/04/11 10:21:43;;;;;;;3.88;1.85;;;12.00;56.70;;;;;;5047845;28;20076;-66
2022/04/11 10:24:23;;;;;;;5.13;1.95;;;12.10;55.50;;;;;;5048502;28;20120;-67
2022/04/11 10:26:56;;;;;;;3.28;1.90;;;12.10;54.20;;;;;;5047724;28;20324;-66
2022/04/11 10:29:31;;;;;;;5.05;2.17;;;12.10;54.30;;;;;;5039172;28;20055;-65
2022/04/11 10:32:14;;;;;;;6.65;2.15;;;12.10;53.50;;;;;;5047147;28;20059;-65
2022/04/11 10:34:48;;;;;;;9.20;2.97;;;12.20;52.90;;;;;;5049143;28;20040;-65
2022/04/11 10:37:15;;;;;;;4.88;1.80;;;12.20;53.00;;;;;;5047973;28;20048;-65
2022/04/11 10:39:44;;;;;;;5.50;2.38;;;12.30;52.70;;;;;;5048289;28;20497;-65
2022/04/11 10:42:15;;;;;;;5.53;2.20;;;12.30;52.60;;;;;;5047896;28;20410;-66
2022/04/11 10:44:50;;;;;;;9.85;2.25;;;12.30;52.80;;;;;;5048345;28;20152;-66
2022/04/11 10:47:16;;;;;;;7.05;2.83;;;12.40;52.40;;;;;;5047464;28;20049;-65
2022/04/11 10:49:44;;;;;;;7.10;3.03;;;12.40;52.90;;;;;;5048458;28;20094;-65
2022/04/11 10:52:33;;;;;;;4.13;2.35;;;12.50;53.00;;;;;;5046834;28;20567;-66
2022/04/11 10:55:17;;;;;;;6.97;2.80;;;12.60;52.10;;;;;;5047703;28;20053;-66
2022/04/11 10:57:47;;;;;;;5.15;2.20;;;12.60;52.20;;;;;;5048409;28;20046;-66
2022/04/11 11:00:32;;;;;;;5.03;2.30;;;12.60;52.20;;;;;;5048404;28;20066;-66
2022/04/11 11:03:00;;;;;;;7.80;3.08;;;12.70;52.10;;;;;;5057867;28;20089;-66
2022/04/11 11:05:48;;;;;;;8.45;3.10;;;12.60;52.20;;;;;;5052209;28;20048;-66
2022/04/11 11:08:14;;;;;;;13.68;4.75;;;12.80;52.00;;;;;;5054810;28;20049;-66
2022/04/11 11:10:45;;;;;;;6.25;3.50;;;12.80;51.60;;;;;;5062005;28;20480;-65
2022/04/11 11:13:39;;;;;;;9.98;3.47;;;12.90;51.40;;;;;;5040391;28;20033;-65
2022/04/11 11:16:07;;;;;;;6.50;3.25;;;13.00;51.00;;;;;;5042466;28;20057;-65
2022/04/11 11:18:48;;;;;;;9.80;3.35;;;13.00;51.20;;;;;;5063210;28;20502;-66
2022/04/11 11:21:27;;;;;;;5.77;2.97;;;13.10;50.30;;;;;;5051337;28;20056;-65
2022/04/11 11:24:04;;;;;;;6.63;3.10;;;13.10;50.70;;;;;;5051303;28;20494;-65
2022/04/11 11:26:48;;;;;;;6.85;3.47;;;13.10;50.30;;;;;;5051471;28;20048;-66
2022/04/11 11:29:18;;;;;;;7.55;3.75;;;13.10;50.40;;;;;;5051408;28;20057;-65
2022/04/11 11:31:46;;;;;;;7.45;4.13;;;13.20;51.30;;;;;;5051369;28;20406;-65
2022/04/11 11:34:14;;;;;;;8.85;4.50;;;13.40;51.40;;;;;;5051270;28;20386;-65
2022/04/11 11:36:40;;;;;;;7.95;4.13;;;13.40;50.90;;;;;;5051130;28;20564;-65
2022/04/11 11:39:18;;;;;;;8.55;4.22;;;13.40;50.00;;;;;;5050275;28;20045;-64
2022/04/11 11:41:45;;;;;;;11.07;3.85;;;13.50;49.80;;;;;;5051480;28;20049;-65
2022/04/11 11:44:11;;;;;;;8.90;4.50;;;13.50;50.70;;;;;;5051091;28;20149;-65
2022/04/11 11:47:00;;;;;;;11.70;4.97;;;13.50;49.70;;;;;;5051250;28;20053;-65
2022/04/11 11:49:46;;;;;;;8.52;5.57;;;13.60;48.40;;;;;;5031069;28;20456;-66
2022/04/11 11:52:16;;;;;;;9.23;5.75;;;13.60;48.70;;;;;;5051463;28;20048;-65
2022/04/11 11:54:44;;;;;;;11.65;6.20;;;13.60;49.00;;;;;;5051798;28;20080;-65
2022/04/11 11:57:19;;;;;;;12.95;7.28;;;13.60;49.10;;;;;;5050961;28;20044;-65
2022/04/11 11:59:50;;;;;;;13.52;7.28;;;13.60;47.60;;;;;;5050838;28;20493;-65
2022/04/11 12:05:01;;;;;;;9.50;6.68;;;13.70;48.10;;;;;;5031150;28;20049;-65
2022/04/11 12:07:28;;;;;;;11.85;7.75;;;13.70;48.50;;;;;;5030765;28;20049;-64
2022/04/11 12:09:55;;;;;;;12.60;8.73;;;13.80;48.10;;;;;;5050663;28;20061;-64
2022/04/11 12:12:22;;;;;;;10.18;6.47;;;13.90;48.10;;;;;;5045933;28;20057;-65
2022/04/11 12:15:07;;;;;;;12.98;6.80;;;13.90;47.70;;;;;;5049375;28;20084;-71
2022/04/11 12:17:42;;;;;;;12.07;6.97;;;14.10;47.60;;;;;;5050387;28;20409;-65
2022/04/11 12:20:19;;;;;;;10.50;6.35;;;14.10;47.10;;;;;;5051031;28;20060;-65
2022/04/11 12:23:10;;;;;;;10.35;7.05;;;14.10;47.30;;;;;;5050414;28;20048;-65
2022/04/11 12:25:39;;;;;;;10.73;6.72;;;14.20;47.80;;;;;;5050572;28;20033;-65
2022/04/11 12:28:26;;;;;;;10.05;6.40;;;14.20;48.20;;;;;;5046078;28;20053;-64
2022/04/11 12:31:03;;;;;;;9.50;6.97;;;14.30;47.50;;;;;;5048443;28;20124;-65
2022/04/11 12:33:34;;;;;;;11.60;7.03;;;14.50;47.80;;;;;;5050706;28;20053;-65
2022/04/11 12:36:07;;;;;;;11.90;6.45;;;14.40;47.10;;;;;;5066242;28;20736;-65
2022/04/11 12:38:45;;;;;;;11.20;7.53;;;14.50;47.30;;;;;;5049992;28;20131;-65
2022/04/11 12:41:44;;;;;;;11.98;6.97;;;14.50;47.10;;;;;;5042994;28;20436;-65
2022/04/11 12:44:20;;;;;;;12.05;6.70;;;14.50;46.40;;;;;;5048975;28;20052;-65
2022/04/11 12:47:04;;;;;;;11.10;7.05;;;14.60;46.60;;;;;;5048706;28;20520;-65
2022/04/11 12:49:43;;;;;;;11.77;6.57;;;14.70;47.10;;;;;;5049228;28;20497;-65
2022/04/11 12:52:09;;;;;;;11.30;7.18;;;14.70;46.90;;;;;;5050194;28;20103;-66
2022/04/11 12:54:52;;;;;;;11.70;6.90;;;14.70;47.00;;;;;;5047954;28;20045;-65
2022/04/11 12:57:26;;;;;;;10.93;6.65;;;14.80;46.80;;;;;;5030828;28;20502;-66
2022/04/11 12:59:53;;;;;;;8.05;6.25;;;14.80;46.10;;;;;;5028821;28;20057;-65
2022/04/11 13:02:20;;;;;;;8.18;5.78;;;14.80;45.90;;;;;;5034824;28;20037;-64